createdAt,value
2023-05-22T00:00:00.204Z,0
2023-05-22T00:05:00.318Z,0
2023-05-22T00:10:00.209Z,0
2023-05-22T00:15:00.222Z,0
2023-05-22T00:20:00.213Z,0
2023-05-22T00:25:00.234Z,0
2023-05-22T00:30:00.251Z,0
2023-05-22T00:35:00.204Z,0
2023-05-22T00:40:00.223Z,0
2023-05-22T00:45:00.208Z,0
2023-05-22T00:50:00.212Z,0
2023-05-22T00:55:00.216Z,0
2023-05-22T01:00:00.280Z,0
2023-05-22T01:05:00.212Z,0
2023-05-22T01:10:00.232Z,0
2023-05-22T01:15:00.209Z,0
2023-05-22T01:20:00.223Z,0
2023-05-22T01:25:00.210Z,0
2023-05-22T01:30:00.198Z,0
2023-05-22T01:35:00.254Z,0
2023-05-22T01:40:00.230Z,0
2023-05-22T01:45:00.241Z,0
2023-05-22T01:50:00.207Z,0
2023-05-22T01:55:00.236Z,0
2023-05-22T02:00:00.204Z,0
2023-05-22T02:05:00.241Z,0
2023-05-22T02:10:00.545Z,0
2023-05-22T02:15:00.246Z,0
2023-05-22T02:20:00.253Z,0
2023-05-22T02:25:00.222Z,0
2023-05-22T02:30:00.223Z,0
2023-05-22T02:35:00.209Z,0
2023-05-22T02:40:00.605Z,0
2023-05-22T02:45:00.197Z,0
2023-05-22T02:50:00.243Z,0
2023-05-22T02:55:00.213Z,0
2023-05-22T03:00:00.225Z,0
2023-05-22T03:05:00.233Z,0
2023-05-22T03:10:00.216Z,9
2023-05-22T03:15:00.199Z,16
2023-05-22T03:20:00.209Z,30
2023-05-22T03:25:00.230Z,52
2023-05-22T03:30:00.227Z,73
2023-05-22T03:35:00.205Z,120
2023-05-22T03:40:00.277Z,142
2023-05-22T03:45:00.250Z,235
2023-05-22T03:50:00.232Z,329
2023-05-22T03:55:00.257Z,459
2023-05-22T04:00:00.206Z,580
2023-05-22T04:05:00.395Z,734
2023-05-22T04:10:00.352Z,825
2023-05-22T04:15:00.220Z,1045
2023-05-22T04:20:00.263Z,1177
2023-05-22T04:25:00.232Z,1323
2023-05-22T04:30:00.239Z,1489
2023-05-22T04:35:00.219Z,1674
2023-05-22T04:40:00.251Z,2402
2023-05-22T04:45:00.215Z,5158
2023-05-22T04:50:00.287Z,5159
2023-05-22T04:55:01.480Z,8594
2023-05-22T05:00:00.252Z,9658
2023-05-22T05:05:00.214Z,9658
2023-05-22T05:10:00.227Z,15286
2023-05-22T05:15:00.223Z,17235
2023-05-22T05:20:00.288Z,19382
2023-05-22T05:25:00.256Z,20444
2023-05-22T05:30:00.203Z,9428
2023-05-22T05:35:00.267Z,6738
2023-05-22T05:40:00.258Z,6755
2023-05-22T05:45:00.327Z,6755
2023-05-22T05:50:00.227Z,6755
2023-05-22T05:55:00.249Z,6755
2023-05-22T06:00:00.377Z,14051
2023-05-22T06:05:00.277Z,27321
2023-05-22T06:10:00.273Z,11087
2023-05-22T06:15:00.228Z,8989
2023-05-22T06:20:00.235Z,9552
2023-05-22T06:25:00.300Z,15350
2023-05-22T06:30:00.211Z,15780
2023-05-22T06:35:00.206Z,11445
2023-05-22T06:40:00.228Z,19697
2023-05-22T06:45:00.218Z,23507
2023-05-22T06:50:00.208Z,9911
2023-05-22T06:55:00.211Z,17795
2023-05-22T07:00:00.279Z,17673
2023-05-22T07:05:00.233Z,13599
2023-05-22T07:10:00.244Z,8762
2023-05-22T07:15:00.320Z,8513
2023-05-22T07:20:00.210Z,9897
2023-05-22T07:25:01.328Z,8776
2023-05-22T07:30:00.230Z,9892
2023-05-22T07:35:00.207Z,9829
2023-05-22T07:40:00.241Z,15686
2023-05-22T07:45:00.236Z,20516
2023-05-22T07:50:00.277Z,16099
2023-05-22T07:55:00.223Z,19244
2023-05-22T08:00:00.243Z,19516
2023-05-22T08:05:00.326Z,21837
2023-05-22T08:10:00.275Z,30220
2023-05-22T08:15:00.235Z,17775
2023-05-22T08:20:00.500Z,47797
2023-05-22T08:25:00.208Z,24621
2023-05-22T08:30:00.264Z,36838
2023-05-22T08:35:00.240Z,51916
2023-05-22T08:40:00.225Z,51916
2023-05-22T08:45:00.253Z,51916
2023-05-22T08:50:00.256Z,51916
2023-05-22T08:55:00.230Z,51916
2023-05-22T09:00:00.265Z,51916
2023-05-22T09:05:00.206Z,50934
2023-05-22T09:10:00.241Z,47174
2023-05-22T09:15:00.236Z,47174
2023-05-22T09:20:00.308Z,47174
2023-05-22T09:25:00.210Z,47174
2023-05-22T09:30:00.207Z,47174
2023-05-22T09:35:00.203Z,47174
2023-05-22T09:40:00.257Z,47174
2023-05-22T09:45:00.235Z,47174
2023-05-22T09:50:00.240Z,47174
2023-05-22T09:55:00.229Z,41986
2023-05-22T10:00:00.259Z,41986
2023-05-22T10:05:00.207Z,41986
2023-05-22T10:10:00.211Z,41986
2023-05-22T10:15:00.205Z,37273
2023-05-22T10:20:00.208Z,37273
2023-05-22T10:25:00.223Z,33151
2023-05-22T10:30:00.236Z,33151
2023-05-22T10:35:00.220Z,33151
2023-05-22T10:40:00.245Z,29458
2023-05-22T10:45:00.239Z,29458
2023-05-22T10:50:00.206Z,26212
2023-05-22T10:55:00.209Z,25628
2023-05-22T11:00:00.232Z,23270
2023-05-22T11:05:00.247Z,23270
2023-05-22T11:10:00.258Z,20649
2023-05-22T11:15:00.237Z,20649
2023-05-22T11:20:00.431Z,18310
2023-05-22T11:25:00.223Z,16214
2023-05-22T11:30:00.260Z,16214
2023-05-22T11:35:00.231Z,16214
2023-05-22T11:40:00.234Z,11262
2023-05-22T11:45:00.250Z,7965
2023-05-22T11:50:00.222Z,8933
2023-05-22T11:55:00.223Z,8626
2023-05-22T12:00:00.350Z,9741
2023-05-22T12:05:00.262Z,9741
2023-05-22T12:10:00.523Z,8113
2023-05-22T12:15:00.205Z,7997
2023-05-22T12:20:00.218Z,7997
2023-05-22T12:25:00.220Z,7997
2023-05-22T12:30:00.364Z,7997
2023-05-22T12:35:00.239Z,6561
2023-05-22T12:40:00.279Z,4607
2023-05-22T12:45:00.207Z,6317
2023-05-22T12:50:00.253Z,6317
2023-05-22T12:55:00.220Z,4998
2023-05-22T13:00:00.299Z,4998
2023-05-22T13:05:00.322Z,6497
2023-05-22T13:10:00.210Z,5769
2023-05-22T13:15:00.206Z,3556
2023-05-22T13:20:00.207Z,2801
2023-05-22T13:25:00.223Z,3167
2023-05-22T13:30:00.260Z,4557
2023-05-22T13:35:00.226Z,4557
2023-05-22T13:40:00.236Z,7362
2023-05-22T13:45:00.231Z,9421
2023-05-22T13:50:00.257Z,8175
2023-05-22T13:55:00.275Z,6374
2023-05-22T14:00:00.241Z,7211
2023-05-22T14:05:00.221Z,6150
2023-05-22T14:10:01.623Z,5434
2023-05-22T14:15:00.349Z,4655
2023-05-22T14:20:00.367Z,4655
2023-05-22T14:25:00.204Z,4655
2023-05-22T14:30:00.228Z,4655
2023-05-22T14:35:00.242Z,4580
2023-05-22T14:40:00.215Z,4580
2023-05-22T14:45:00.216Z,4580
2023-05-22T14:50:14.703Z,6133
2023-05-22T14:55:00.258Z,6039
2023-05-22T15:00:00.224Z,6789
2023-05-22T15:05:00.279Z,6001
2023-05-22T15:10:00.208Z,7874
2023-05-22T15:15:00.242Z,6984
2023-05-22T15:20:00.223Z,8153
2023-05-22T15:25:00.210Z,6390
2023-05-22T15:30:00.229Z,5681
2023-05-22T15:35:00.271Z,5051
2023-05-22T15:40:00.224Z,5051
2023-05-22T15:45:00.247Z,4163
2023-05-22T15:50:00.247Z,4163
2023-05-22T15:55:00.210Z,4119
2023-05-22T16:00:00.248Z,4119
2023-05-22T16:05:00.198Z,4632
2023-05-22T16:10:00.245Z,4632
2023-05-22T16:15:01.474Z,3755
2023-05-22T16:20:00.241Z,3563
2023-05-22T16:25:00.227Z,3541
2023-05-22T16:30:00.247Z,3541
2023-05-22T16:35:00.213Z,3541
2023-05-22T16:40:00.360Z,3541
2023-05-22T16:45:00.210Z,3541
2023-05-22T16:50:00.380Z,3541
2023-05-22T16:55:00.258Z,3261
2023-05-22T17:00:00.215Z,3270
2023-05-22T17:05:00.226Z,1903
2023-05-22T17:10:00.377Z,2228
2023-05-22T17:15:00.213Z,3150
2023-05-22T17:20:00.357Z,2942
2023-05-22T17:25:00.228Z,2942
2023-05-22T17:30:00.285Z,2942
2023-05-22T17:35:00.225Z,2942
2023-05-22T17:40:00.392Z,2942
2023-05-22T17:45:00.210Z,2605
2023-05-22T17:50:00.284Z,2605
2023-05-22T17:55:00.232Z,2317
2023-05-22T18:00:00.206Z,2317
2023-05-22T18:05:00.209Z,1896
2023-05-22T18:10:00.215Z,1900
2023-05-22T18:15:00.227Z,1900
2023-05-22T18:20:00.209Z,1687
2023-05-22T18:25:00.245Z,1501
2023-05-22T18:30:00.252Z,1701
2023-05-22T18:35:00.204Z,1913
2023-05-22T18:40:00.299Z,1701
2023-05-22T18:45:00.229Z,898
2023-05-22T18:50:00.301Z,799
2023-05-22T18:55:00.272Z,704
2023-05-22T19:00:00.235Z,626
2023-05-22T19:05:00.327Z,471
2023-05-22T19:10:00.209Z,399
2023-05-22T19:15:00.190Z,288
2023-05-22T19:20:00.264Z,243
2023-05-22T19:25:00.208Z,175
2023-05-22T19:30:00.231Z,148
2023-05-22T19:35:00.191Z,106
2023-05-22T19:40:00.280Z,64
2023-05-22T19:45:00.199Z,40
2023-05-22T19:50:00.207Z,26
2023-05-22T19:55:00.227Z,12
2023-05-22T20:00:00.231Z,7
2023-05-22T20:05:00.202Z,5
2023-05-22T20:10:00.272Z,5
2023-05-22T20:15:00.216Z,5
2023-05-22T20:20:00.285Z,5
2023-05-22T20:25:00.232Z,5
2023-05-22T20:30:00.588Z,5
2023-05-22T20:35:00.208Z,5
2023-05-22T20:40:00.223Z,5
2023-05-22T20:45:00.235Z,5
2023-05-22T20:50:00.224Z,5
2023-05-22T20:55:00.224Z,0
2023-05-22T21:00:00.233Z,0
2023-05-22T21:05:00.253Z,0
2023-05-22T21:10:01.063Z,0
2023-05-22T21:15:00.221Z,0
2023-05-22T21:20:00.216Z,0
2023-05-22T21:25:00.243Z,0
2023-05-22T21:30:00.363Z,0
2023-05-22T21:35:00.208Z,0
2023-05-22T21:40:00.312Z,0
2023-05-22T21:45:00.211Z,0
2023-05-22T21:50:00.203Z,0
2023-05-22T21:55:00.225Z,0
2023-05-22T22:00:00.215Z,0
2023-05-22T22:05:00.207Z,0
2023-05-22T22:10:00.215Z,0
2023-05-22T22:15:00.268Z,0
2023-05-22T22:20:00.267Z,0
2023-05-22T22:25:00.218Z,0
2023-05-22T22:30:00.209Z,0
2023-05-22T22:35:00.207Z,0
2023-05-22T22:40:00.209Z,0
2023-05-22T22:45:00.221Z,0
2023-05-22T22:50:00.266Z,0
2023-05-22T22:55:00.225Z,0
2023-05-22T23:00:00.251Z,0
2023-05-22T23:05:00.443Z,0
2023-05-22T23:10:00.211Z,0
2023-05-22T23:15:00.196Z,0
2023-05-22T23:20:00.229Z,0
2023-05-22T23:25:00.228Z,0
2023-05-22T23:30:00.258Z,0
2023-05-22T23:35:00.211Z,0
2023-05-22T23:40:00.293Z,0
2023-05-22T23:45:00.199Z,0
2023-05-22T23:50:00.287Z,0
2023-05-22T23:55:01.125Z,0
